Wilson Maas — 8PSZ — position and weather

sailwx.info

Track history (hours):
 
Tides and Currents Weather Stations Pressure Air Temp Water Temp Dewpoint Dewpoint Depression Visibility Wind Speed Wind Dir Waves Ship Positions

Wilson Maas

Last reported at 2018-May-27 17:30 UTC. Time now 2018-May-27 17:48 UTC.
Position N 65°53' E 011°06'.

Length 78 m; draft 4 m.

Type: Ship. MMSI: 314217000.

Date/timePositionNaut miles runAvg speedWind from/ knotsBaromVisibWave heightAir tempDewpointWater temp
2018-May-27 17:30N 65°53' E 011°06'510.1
2018-May-27 17:00N 65°48' E 010°60'5 9.9
2018-May-27 16:30N 65°44' E 010°54'510.1
2018-May-27 16:00N 65°39' E 010°49'510.1
2018-May-27 15:30N 65°34' E 010°45'5 9.6
2018-May-27 15:00N 65°30' E 010°40'510.0
2018-May-27 14:29N 65°25' E 010°35'510.5
2018-May-27 14:00N 65°21' E 010°31'510.4
2018-May-27 13:31N 65°16' E 010°26'510.4
2018-May-27 13:00N 65°11' E 010°21'8710.1
2018-May-27 04:27N 63°60' E 008°26'410.0
2018-May-27 04:00N 63°56' E 008°21'5 9.9
2018-May-27 03:30N 63°52' E 008°14'5 9.9
2018-May-27 02:58N 63°48' E 008°06'5 9.9
2018-May-27 02:30N 63°45' E 007°59'5 9.7
2018-May-27 02:00N 63°41' E 007°52'5 9.3
2018-May-27 01:30N 63°37' E 007°45'5 9.3
2018-May-27 00:59N 63°34' E 007°38'5 9.6
2018-May-27 00:30N 63°30' E 007°32'5 9.9
2018-May-27 00:00N 63°26' E 007°25'5 9.7
2018-May-26 23:30N 63°22' E 007°18'5 9.6
2018-May-26 23:00N 63°19' E 007°11'5 9.4
2018-May-26 22:30N 63°15' E 007°05'5 9.3
2018-May-26 22:00N 63°11' E 006°58'5 9.4
2018-May-26 21:30N 63°08' E 006°50'5 9.4
2018-May-26 21:00N 63°05' E 006°42'5 9.4
2018-May-26 20:30N 63°02' E 006°35'5 9.4
2018-May-26 20:00N 62°59' E 006°28'5 9.3
2018-May-26 19:30N 62°55' E 006°20'5 9.0
2018-May-26 19:00N 62°52' E 006°13'4 9.0
2018-May-26 18:30N 62°49' E 006°06'4 8.8
2018-May-26 18:00N 62°46' E 005°59'5 8.8
2018-May-26 17:30N 62°43' E 005°52'4 8.9
2018-May-26 17:00N 62°39' E 005°46'5 9.2
2018-May-26 16:30N 62°36' E 005°39'5 9.3
2018-May-26 16:00N 62°32' E 005°33'5 9.1
2018-May-26 15:30N 62°29' E 005°26'5 9.4
2018-May-26 14:59N 62°25' E 005°19'5 9.5
2018-May-26 14:30N 62°22' E 005°13'5 9.1
2018-May-26 14:00N 62°18' E 005°08'4 8.8
2018-May-26 13:30N 62°15' E 005°02'4 8.4
2018-May-26 12:58N 62°11' E 004°57'4 8.4
2018-May-26 12:28N 62°07' E 004°53'4 8.6
2018-May-26 12:00N 62°03' E 004°49'4 8.8
2018-May-26 11:30N 61°59' E 004°46'4 8.8
2018-May-26 11:00N 61°55' E 004°42'5 8.7
2018-May-26 10:29N 61°51' E 004°38'4 8.6
2018-May-26 10:00N 61°48' E 004°34'4 8.5
2018-May-26 09:30N 61°44' E 004°31'4 8.8
2018-May-26 09:00N 61°39' E 004°29'4 8.8
2018-May-26 08:30N 61°35' E 004°28'4 9.0
2018-May-26 08:00N 61°30' E 004°26'5 9.2
2018-May-26 07:30N 61°26' E 004°26'5 9.6
2018-May-26 07:00N 61°21' E 004°26'5 9.7
2018-May-26 06:30N 61°16' E 004°26'10 9.8
2018-May-26 05:30N 61°06' E 004°26'5 9.5
2018-May-26 05:00N 61°02' E 004°27'5 9.5
2018-May-26 04:30N 60°57' E 004°28'5 9.2
2018-May-26 03:59N 60°52' E 004°28'4 9.1
2018-May-26 03:30N 60°48' E 004°29'5 9.2
2018-May-26 03:00N 60°43' E 004°30'5 9.7
2018-May-26 02:30N 60°38' E 004°30'510.0
2018-May-26 02:00N 60°33' E 004°31'510.3
2018-May-26 01:29N 60°28' E 004°32'510.3
2018-May-26 00:59N 60°23' E 004°33'510.0
2018-May-26 00:29N 60°18' E 004°33'5 9.9
2018-May-26 00:00N 60°13' E 004°34'5 9.5
2018-May-25 23:30N 60°08' E 004°35'5 9.8
2018-May-25 23:00N 60°03' E 004°35'5 9.9
2018-May-25 22:30N 59°59' E 004°36'510.1
2018-May-25 22:00N 59°54' E 004°37'510.0
2018-May-25 21:30N 59°49' E 004°38'5 9.8
2018-May-25 21:00N 59°44' E 004°39'35 9.6
2018-May-25 17:23N 59°09' E 004°49'410.5
2018-May-25 17:00N 59°06' E 004°54'510.7
2018-May-25 16:30N 59°02' E 005°00'510.3
2018-May-25 16:00N 58°57' E 005°05'5 9.8
2018-May-25 15:30N 58°53' E 005°10'5 9.9
2018-May-25 15:00N 58°49' E 005°15'510.0
2018-May-25 14:30N 58°45' E 005°21'510.2
2018-May-25 14:00N 58°40' E 005°26'5 9.7
2018-May-25 13:30N 58°36' E 005°31'5 9.8
2018-May-25 13:00N 58°32' E 005°36'510.9
2018-May-25 12:30N 58°28' E 005°43'510.6
2018-May-25 12:00N 58°25' E 005°50'510.1
2018-May-25 11:30N 58°21' E 005°57'510.1
2018-May-25 11:00N 58°18' E 006°04'5 9.9
2018-May-25 10:30N 58°14' E 006°11'510.1
2018-May-25 10:00N 58°11' E 006°18'510.5
2018-May-25 09:30N 58°07' E 006°25'510.6
2018-May-25 09:00N 58°04' E 006°33'510.2
2018-May-25 08:30N 58°01' E 006°40'510.3
2018-May-25 08:00N 57°57' E 006°48'510.3
2018-May-25 07:30N 57°54' E 006°55'510.0
2018-May-25 07:00N 57°51' E 007°02'510.5
2018-May-25 06:29N 57°47' E 007°10'511.2
2018-May-25 06:00N 57°44' E 007°18'76 2.9
2018-May-24 04:13N 56°29' E 006°56'210.6
2018-May-24 04:01N 56°27' E 006°53'510.5
2018-May-24 03:30N 56°24' E 006°45'287 9.7
2018-May-22 21:54N 53°35' E 000°01'4 8.9
2018-May-22 21:30N 53°36' W 000°05'4 1.3
2018-May-22 18:03N 53°38' W 000°12'0 0.1
2018-May-22 17:57N 53°38' W 000°12'0 0.0
2018-May-22 17:27N 53°38' W 000°12'0 0.0
2018-May-22 16:57N 53°38' W 000°12'0 0.0
2018-May-22 16:30N 53°38' W 000°12'0 0.0
2018-May-22 13:09N 53°38' W 000°12'0 0.0
2018-May-22 12:53N 53°38' W 000°12'0 0.6
2018-May-22 12:06N 53°38' W 000°11'0 1.2
2018-May-22 11:59N 53°38' W 000°11'3 6.7
2018-May-22 11:28N 53°37' W 000°05'56 4.9
2018-May-22 00:01N 53°28' E 001°27'1 6.7
2018-May-21 23:50N 53°27' E 001°29'2 6.8
2018-May-21 23:30N 53°26' E 001°33'6 6.7
2018-May-21 22:36N 53°26' E 001°43'1 6.7
2018-May-21 22:30N 53°26' E 001°44'3 6.8
2018-May-21 22:00N 53°26' E 001°50'4 6.9
2018-May-21 21:29N 53°25' E 001°56'3 6.6
2018-May-21 21:00N 53°25' E 002°01'4 6.9
2018-May-21 20:30N 53°25' E 002°07'3 7.0
2018-May-21 20:00N 53°25' E 002°12'4 7.3
2018-May-21 19:30N 53°25' E 002°19'4 7.9
2018-May-21 19:00N 53°25' E 002°25'5 9.3
2018-May-21 18:30N 53°24' E 002°33'70 9.7
2018-May-21 11:17N 53°26' E 004°30'6 8.6
2018-May-21 10:34N 53°29' E 004°40'0 8.4
2018-May-21 10:30N 53°29' E 004°41'7 8.3
2018-May-21 09:37N 53°31' E 004°53'2 8.4
2018-May-21 09:24N 53°32' E 004°55'26 9.5
2018-May-21 06:42N 53°41' E 005°36'2210.7
2018-May-21 04:41N 53°48' E 006°10'22 9.9
2018-May-21 02:31N 53°54' E 006°46'1 9.2
2018-May-21 02:24N 53°54' E 006°48'5 9.0
2018-May-21 01:52N 53°55' E 006°56'3 8.8
2018-May-21 01:30N 53°55' E 007°01'38 8.2
2018-May-20 20:54N 53°50' E 008°04'511.2
2018-May-20 20:27N 53°46' E 008°10'611.9
2018-May-20 19:59N 53°43' E 008°17'613.0
2018-May-20 19:30N 53°39' E 008°25'612.9
2018-May-20 19:00N 53°34' E 008°33'510.5
2018-May-20 18:29N 53°29' E 008°30'611.8
2018-May-20 18:00N 53°23' E 008°30'510.4
2018-May-20 17:30N 53°18' E 008°30'5 9.1
2018-May-20 17:00N 53°13' E 008°29'4 8.3
2018-May-20 16:30N 53°11' E 008°34'4 7.4
2018-May-20 16:00N 53°08' E 008°38'3 5.3
2018-May-20 15:30N 53°07' E 008°43'0 0.5
2018-May-20 15:00N 53°07' E 008°43'0 0.4
2018-May-20 14:28N 53°07' E 008°43'0 0.0
2018-May-20 13:58N 53°07' E 008°43'0 0.0
2018-May-20 13:28N 53°07' E 008°43'0 0.0
2018-May-20 12:58N 53°07' E 008°43'0 0.0
2018-May-20 12:28N 53°07' E 008°43'0 0.0
2018-May-20 11:58N 53°07' E 008°43'0 0.0
2018-May-20 11:28N 53°07' E 008°43'0 0.0
2018-May-20 10:58N 53°07' E 008°43'0 0.0
2018-May-20 10:28N 53°07' E 008°43'0 0.0
2018-May-20 09:58N 53°07' E 008°43'0 0.0
2018-May-20 09:28N 53°07' E 008°43'0 0.0
2018-May-20 08:58N 53°07' E 008°43'0 0.0
2018-May-20 08:28N 53°07' E 008°43'0 0.0
2018-May-20 07:58N 53°07' E 008°43'0 0.0
2018-May-20 07:28N 53°07' E 008°43'0 0.0
2018-May-20 06:58N 53°07' E 008°43'0 0.0
2018-May-20 06:28N 53°07' E 008°43'0 0.0
2018-May-20 05:58N 53°07' E 008°43'0 0.0
2018-May-20 05:28N 53°07' E 008°43'0 0.0
2018-May-20 04:58N 53°07' E 008°43'0 0.0
2018-May-20 04:28N 53°07' E 008°43'0 0.0
2018-May-20 03:58N 53°07' E 008°43'0 0.0
2018-May-20 03:28N 53°07' E 008°43'0 0.0
2018-May-20 02:58N 53°07' E 008°43'0 0.0
2018-May-20 02:28N 53°07' E 008°43'0 0.0
2018-May-20 01:58N 53°07' E 008°43'0 0.0
2018-May-20 01:29N 53°07' E 008°43'0 0.0
2018-May-20 00:58N 53°07' E 008°43'0 0.0
2018-May-20 00:28N 53°07' E 008°43'0 0.0
2018-May-19 23:58N 53°07' E 008°43'0 0.0
2018-May-19 23:28N 53°07' E 008°43'0 0.0
2018-May-19 22:58N 53°07' E 008°43'0 0.0
2018-May-19 22:28N 53°07' E 008°43'0 0.0
2018-May-19 21:58N 53°07' E 008°43'0 0.0
2018-May-19 21:28N 53°07' E 008°43'0 0.0
2018-May-19 20:58N 53°07' E 008°43'0 0.0
2018-May-19 20:28N 53°07' E 008°43'0 0.0
2018-May-19 19:58N 53°07' E 008°43'0 0.0
2018-May-19 19:28N 53°07' E 008°43'0 0.0
2018-May-19 18:58N 53°07' E 008°43'0 0.0
2018-May-19 18:28N 53°07' E 008°43'0 0.0
2018-May-19 17:58N 53°07' E 008°43'0 0.0
2018-May-19 17:28N 53°07' E 008°43'0 0.0
2018-May-19 16:58N 53°07' E 008°43'0 0.0
2018-May-19 16:28N 53°07' E 008°43'0 0.0
2018-May-19 15:58N 53°07' E 008°43'0 0.0
2018-May-19 15:28N 53°07' E 008°43'0 0.0
2018-May-19 14:58N 53°07' E 008°43'0 0.0
2018-May-19 14:28N 53°07' E 008°43'0 0.0
2018-May-19 13:58N 53°07' E 008°43'0 0.0
2018-May-19 13:28N 53°07' E 008°43'0 0.0
2018-May-19 12:58N 53°07' E 008°43'0 0.0
2018-May-19 12:28N 53°07' E 008°43'0 0.0
2018-May-19 11:58N 53°07' E 008°43'0 0.0
2018-May-19 11:28N 53°07' E 008°43'0 0.0
2018-May-19 10:58N 53°07' E 008°43'0 0.0
2018-May-19 10:28N 53°07' E 008°43'0 0.0
2018-May-19 09:58N 53°07' E 008°43'0 0.0
2018-May-19 09:28N 53°07' E 008°43'0 0.0
2018-May-19 08:58N 53°07' E 008°43'0 0.0
2018-May-19 08:28N 53°07' E 008°43'0 0.0
2018-May-19 07:58N 53°07' E 008°43'0 0.0
2018-May-19 07:28N 53°07' E 008°43'0 0.0
2018-May-19 06:58N 53°07' E 008°43'0 0.0
2018-May-19 06:28N 53°07' E 008°43'0 0.0
2018-May-19 05:58N 53°07' E 008°43'0 0.0
2018-May-19 05:28N 53°07' E 008°43'0 0.0
2018-May-19 04:58N 53°07' E 008°43'0 0.0
2018-May-19 04:28N 53°07' E 008°43'0 0.0
2018-May-19 03:58N 53°07' E 008°43'0 0.0
2018-May-19 03:28N 53°07' E 008°43'0 0.0
2018-May-19 02:58N 53°07' E 008°43'0 0.0
2018-May-19 02:28N 53°07' E 008°43'0 0.0
2018-May-19 01:58N 53°07' E 008°43'0 0.0
2018-May-19 01:28N 53°07' E 008°43'0 0.0
2018-May-19 00:58N 53°07' E 008°43'0 0.0
2018-May-19 00:28N 53°07' E 008°43'0 0.0
2018-May-18 23:58N 53°07' E 008°43'0 0.0
2018-May-18 23:28N 53°07' E 008°43'0 0.0
2018-May-18 22:58N 53°07' E 008°43'0 0.0
2018-May-18 22:28N 53°07' E 008°43'0 0.0
2018-May-18 21:58N 53°07' E 008°43'0 0.0
2018-May-18 21:28N 53°07' E 008°43'0 0.0
2018-May-18 20:58N 53°07' E 008°43'0 0.0
2018-May-18 20:28N 53°07' E 008°43'0 0.0
2018-May-18 19:58N 53°07' E 008°43'0 0.0
2018-May-18 19:28N 53°07' E 008°43'0 0.0
2018-May-18 18:58N 53°07' E 008°43'0 0.0
2018-May-18 18:28N 53°07' E 008°43'0 0.0
2018-May-18 17:58N 53°07' E 008°43'0 0.0
2018-May-18 17:28N 53°07' E 008°43'0 0.0
2018-May-18 16:58N 53°07' E 008°43'0 0.0
2018-May-18 16:28N 53°07' E 008°43'0 0.0
2018-May-18 15:58N 53°07' E 008°43'0 0.0
2018-May-18 15:28N 53°07' E 008°43'0 0.0
2018-May-18 14:58N 53°07' E 008°43'0 0.0
2018-May-18 14:28N 53°07' E 008°43'0 0.0
2018-May-18 13:58N 53°07' E 008°43'0 0.0
2018-May-18 13:30N 53°07' E 008°43'0 0.0
2018-May-18 12:58N 53°07' E 008°43'0 0.0
2018-May-18 12:28N 53°07' E 008°43'0 0.7
2018-May-18 11:59N 53°07' E 008°43'0 0.0
2018-May-18 11:29N 53°07' E 008°43'0 0.0
2018-May-18 10:59N 53°07' E 008°43'0 0.0
2018-May-18 10:29N 53°07' E 008°43'0 0.0
2018-May-18 09:59N 53°07' E 008°43'0 0.0
2018-May-18 09:29N 53°07' E 008°43'0 0.0
2018-May-18 08:59N 53°07' E 008°43'0 0.0
2018-May-18 08:29N 53°07' E 008°43'0 0.0
2018-May-18 07:59N 53°07' E 008°43'0 0.0
2018-May-18 07:29N 53°07' E 008°43'0 0.0
2018-May-18 06:59N 53°07' E 008°43'0 0.0
2018-May-18 06:29N 53°07' E 008°43'0 0.0
2018-May-18 05:59N 53°07' E 008°43'0 0.0
2018-May-18 05:29N 53°07' E 008°43'0 0.0
2018-May-18 04:59N 53°07' E 008°43'0 0.0
2018-May-18 04:29N 53°07' E 008°43'0 0.0
2018-May-18 03:59N 53°07' E 008°43'0 0.0
2018-May-18 03:29N 53°07' E 008°43'0 0.0
2018-May-18 02:59N 53°07' E 008°43'0 0.0
2018-May-18 02:29N 53°07' E 008°43'0 0.0
2018-May-18 01:59N 53°07' E 008°43'0 0.0
2018-May-18 01:29N 53°07' E 008°43'0 0.0
2018-May-18 00:59N 53°07' E 008°43'0 0.0
2018-May-18 00:29N 53°07' E 008°43'0 0.0
2018-May-17 23:59N 53°07' E 008°43'0 0.0
2018-May-17 23:29N 53°07' E 008°43'0 0.0
2018-May-17 22:59N 53°07' E 008°43'0 0.0
2018-May-17 22:29N 53°07' E 008°43'0 0.0
2018-May-17 21:59N 53°07' E 008°43'0 0.0
2018-May-17 21:29N 53°07' E 008°43'0 0.0
2018-May-17 20:59N 53°07' E 008°43'0 0.0
2018-May-17 20:29N 53°07' E 008°43'0 0.0
2018-May-17 19:59N 53°07' E 008°43'0 0.0
2018-May-17 19:26N 53°07' E 008°43'0 0.0
2018-May-17 18:59N 53°07' E 008°43'0 0.0
2018-May-17 18:29N 53°07' E 008°43'0 0.0
2018-May-17 17:59N 53°07' E 008°43'  
Track history (hours):
 
Tides and Currents Weather Stations Pressure Air Temp Water Temp Dewpoint Dewpoint Depression Visibility Wind Speed Wind Dir Waves Ship Positions

Wilson Maas

Last reported at 2018-May-27 17:30 UTC. Time now 2018-May-27 17:48 UTC.
Position N 65°53' E 011°06'.

Length 78 m; draft 4 m.

Type: Ship. MMSI: 314217000.

Date/timePositionNaut miles runAvg speedWind from/ knotsBaromVisibWave heightAir tempDewpointWater temp
2018-May-27 17:30N 65°53' E 011°06'510.1
2018-May-27 17:00N 65°48' E 010°60'5 9.9
2018-May-27 16:30N 65°44' E 010°54'510.1
2018-May-27 16:00N 65°39' E 010°49'510.1
2018-May-27 15:30N 65°34' E 010°45'5 9.6
2018-May-27 15:00N 65°30' E 010°40'510.0
2018-May-27 14:29N 65°25' E 010°35'510.5
2018-May-27 14:00N 65°21' E 010°31'510.4
2018-May-27 13:31N 65°16' E 010°26'510.4
2018-May-27 13:00N 65°11' E 010°21'8710.1
2018-May-27 04:27N 63°60' E 008°26'410.0
2018-May-27 04:00N 63°56' E 008°21'5 9.9
2018-May-27 03:30N 63°52' E 008°14'5 9.9
2018-May-27 02:58N 63°48' E 008°06'5 9.9
2018-May-27 02:30N 63°45' E 007°59'5 9.7
2018-May-27 02:00N 63°41' E 007°52'5 9.3
2018-May-27 01:30N 63°37' E 007°45'5 9.3
2018-May-27 00:59N 63°34' E 007°38'5 9.6
2018-May-27 00:30N 63°30' E 007°32'5 9.9
2018-May-27 00:00N 63°26' E 007°25'5 9.7
2018-May-26 23:30N 63°22' E 007°18'5 9.6
2018-May-26 23:00N 63°19' E 007°11'5 9.4
2018-May-26 22:30N 63°15' E 007°05'5 9.3
2018-May-26 22:00N 63°11' E 006°58'5 9.4
2018-May-26 21:30N 63°08' E 006°50'5 9.4
2018-May-26 21:00N 63°05' E 006°42'5 9.4
2018-May-26 20:30N 63°02' E 006°35'5 9.4
2018-May-26 20:00N 62°59' E 006°28'5 9.3
2018-May-26 19:30N 62°55' E 006°20'5 9.0
2018-May-26 19:00N 62°52' E 006°13'4 9.0
2018-May-26 18:30N 62°49' E 006°06'4 8.8
2018-May-26 18:00N 62°46' E 005°59'5 8.8
2018-May-26 17:30N 62°43' E 005°52'4 8.9
2018-May-26 17:00N 62°39' E 005°46'5 9.2
2018-May-26 16:30N 62°36' E 005°39'5 9.3
2018-May-26 16:00N 62°32' E 005°33'5 9.1
2018-May-26 15:30N 62°29' E 005°26'5 9.4
2018-May-26 14:59N 62°25' E 005°19'5 9.5
2018-May-26 14:30N 62°22' E 005°13'5 9.1
2018-May-26 14:00N 62°18' E 005°08'4 8.8
2018-May-26 13:30N 62°15' E 005°02'4 8.4
2018-May-26 12:58N 62°11' E 004°57'4 8.4
2018-May-26 12:28N 62°07' E 004°53'4 8.6
2018-May-26 12:00N 62°03' E 004°49'4 8.8
2018-May-26 11:30N 61°59' E 004°46'4 8.8
2018-May-26 11:00N 61°55' E 004°42'5 8.7
2018-May-26 10:29N 61°51' E 004°38'4 8.6
2018-May-26 10:00N 61°48' E 004°34'4 8.5
2018-May-26 09:30N 61°44' E 004°31'4 8.8
2018-May-26 09:00N 61°39' E 004°29'4 8.8
2018-May-26 08:30N 61°35' E 004°28'4 9.0
2018-May-26 08:00N 61°30' E 004°26'5 9.2
2018-May-26 07:30N 61°26' E 004°26'5 9.6
2018-May-26 07:00N 61°21' E 004°26'5 9.7
2018-May-26 06:30N 61°16' E 004°26'10 9.8
2018-May-26 05:30N 61°06' E 004°26'5 9.5
2018-May-26 05:00N 61°02' E 004°27'5 9.5
2018-May-26 04:30N 60°57' E 004°28'5 9.2
2018-May-26 03:59N 60°52' E 004°28'4 9.1
2018-May-26 03:30N 60°48' E 004°29'5 9.2
2018-May-26 03:00N 60°43' E 004°30'5 9.7
2018-May-26 02:30N 60°38' E 004°30'510.0
2018-May-26 02:00N 60°33' E 004°31'510.3
2018-May-26 01:29N 60°28' E 004°32'510.3
2018-May-26 00:59N 60°23' E 004°33'510.0
2018-May-26 00:29N 60°18' E 004°33'5 9.9
2018-May-26 00:00N 60°13' E 004°34'5 9.5
2018-May-25 23:30N 60°08' E 004°35'5 9.8
2018-May-25 23:00N 60°03' E 004°35'5 9.9
2018-May-25 22:30N 59°59' E 004°36'510.1
2018-May-25 22:00N 59°54' E 004°37'510.0
2018-May-25 21:30N 59°49' E 004°38'5 9.8
2018-May-25 21:00N 59°44' E 004°39'35 9.6
2018-May-25 17:23N 59°09' E 004°49'410.5
2018-May-25 17:00N 59°06' E 004°54'510.7
2018-May-25 16:30N 59°02' E 005°00'510.3
2018-May-25 16:00N 58°57' E 005°05'5 9.8
2018-May-25 15:30N 58°53' E 005°10'5 9.9
2018-May-25 15:00N 58°49' E 005°15'510.0
2018-May-25 14:30N 58°45' E 005°21'510.2
2018-May-25 14:00N 58°40' E 005°26'5 9.7
2018-May-25 13:30N 58°36' E 005°31'5 9.8
2018-May-25 13:00N 58°32' E 005°36'510.9
2018-May-25 12:30N 58°28' E 005°43'510.6
2018-May-25 12:00N 58°25' E 005°50'510.1
2018-May-25 11:30N 58°21' E 005°57'510.1
2018-May-25 11:00N 58°18' E 006°04'5 9.9
2018-May-25 10:30N 58°14' E 006°11'510.1
2018-May-25 10:00N 58°11' E 006°18'510.5
2018-May-25 09:30N 58°07' E 006°25'510.6
2018-May-25 09:00N 58°04' E 006°33'510.2
2018-May-25 08:30N 58°01' E 006°40'510.3
2018-May-25 08:00N 57°57' E 006°48'510.3
2018-May-25 07:30N 57°54' E 006°55'510.0
2018-May-25 07:00N 57°51' E 007°02'510.5
2018-May-25 06:29N 57°47' E 007°10'511.2
2018-May-25 06:00N 57°44' E 007°18'76 2.9
2018-May-24 04:13N 56°29' E 006°56'210.6
2018-May-24 04:01N 56°27' E 006°53'510.5
2018-May-24 03:30N 56°24' E 006°45'287 9.7
2018-May-22 21:54N 53°35' E 000°01'4 8.9
2018-May-22 21:30N 53°36' W 000°05'4 1.3
2018-May-22 18:03N 53°38' W 000°12'0 0.1
2018-May-22 17:57N 53°38' W 000°12'0 0.0
2018-May-22 17:27N 53°38' W 000°12'0 0.0
2018-May-22 16:57N 53°38' W 000°12'0 0.0
2018-May-22 16:30N 53°38' W 000°12'0 0.0
2018-May-22 13:09N 53°38' W 000°12'0 0.0
2018-May-22 12:53N 53°38' W 000°12'0 0.6
2018-May-22 12:06N 53°38' W 000°11'0 1.2
2018-May-22 11:59N 53°38' W 000°11'3 6.7
2018-May-22 11:28N 53°37' W 000°05'56 4.9
2018-May-22 00:01N 53°28' E 001°27'1 6.7
2018-May-21 23:50N 53°27' E 001°29'2 6.8
2018-May-21 23:30N 53°26' E 001°33'6 6.7
2018-May-21 22:36N 53°26' E 001°43'1 6.7
2018-May-21 22:30N 53°26' E 001°44'3 6.8
2018-May-21 22:00N 53°26' E 001°50'4 6.9
2018-May-21 21:29N 53°25' E 001°56'3 6.6
2018-May-21 21:00N 53°25' E 002°01'4 6.9
2018-May-21 20:30N 53°25' E 002°07'3 7.0
2018-May-21 20:00N 53°25' E 002°12'4 7.3
2018-May-21 19:30N 53°25' E 002°19'4 7.9
2018-May-21 19:00N 53°25' E 002°25'5 9.3
2018-May-21 18:30N 53°24' E 002°33'70 9.7
2018-May-21 11:17N 53°26' E 004°30'6 8.6
2018-May-21 10:34N 53°29' E 004°40'0 8.4
2018-May-21 10:30N 53°29' E 004°41'7 8.3
2018-May-21 09:37N 53°31' E 004°53'2 8.4
2018-May-21 09:24N 53°32' E 004°55'26 9.5
2018-May-21 06:42N 53°41' E 005°36'2210.7
2018-May-21 04:41N 53°48' E 006°10'22 9.9
2018-May-21 02:31N 53°54' E 006°46'1 9.2
2018-May-21 02:24N 53°54' E 006°48'5 9.0
2018-May-21 01:52N 53°55' E 006°56'3 8.8
2018-May-21 01:30N 53°55' E 007°01'38 8.2
2018-May-20 20:54N 53°50' E 008°04'511.2
2018-May-20 20:27N 53°46' E 008°10'611.9
2018-May-20 19:59N 53°43' E 008°17'613.0
2018-May-20 19:30N 53°39' E 008°25'612.9
2018-May-20 19:00N 53°34' E 008°33'510.5
2018-May-20 18:29N 53°29' E 008°30'611.8
2018-May-20 18:00N 53°23' E 008°30'510.4
2018-May-20 17:30N 53°18' E 008°30'5 9.1
2018-May-20 17:00N 53°13' E 008°29'4 8.3
2018-May-20 16:30N 53°11' E 008°34'4 7.4
2018-May-20 16:00N 53°08' E 008°38'3 5.3
2018-May-20 15:30N 53°07' E 008°43'0 0.5
2018-May-20 15:00N 53°07' E 008°43'0 0.4
2018-May-20 14:28N 53°07' E 008°43'0 0.0
2018-May-20 13:58N 53°07' E 008°43'0 0.0
2018-May-20 13:28N 53°07' E 008°43'0 0.0
2018-May-20 12:58N 53°07' E 008°43'0 0.0
2018-May-20 12:28N 53°07' E 008°43'0 0.0
2018-May-20 11:58N 53°07' E 008°43'0 0.0
2018-May-20 11:28N 53°07' E 008°43'0 0.0
2018-May-20 10:58N 53°07' E 008°43'0 0.0
2018-May-20 10:28N 53°07' E 008°43'0 0.0
2018-May-20 09:58N 53°07' E 008°43'0 0.0
2018-May-20 09:28N 53°07' E 008°43'0 0.0
2018-May-20 08:58N 53°07' E 008°43'0 0.0
2018-May-20 08:28N 53°07' E 008°43'0 0.0
2018-May-20 07:58N 53°07' E 008°43'0 0.0
2018-May-20 07:28N 53°07' E 008°43'0 0.0
2018-May-20 06:58N 53°07' E 008°43'0 0.0
2018-May-20 06:28N 53°07' E 008°43'0 0.0
2018-May-20 05:58N 53°07' E 008°43'0 0.0
2018-May-20 05:28N 53°07' E 008°43'0 0.0
2018-May-20 04:58N 53°07' E 008°43'0 0.0
2018-May-20 04:28N 53°07' E 008°43'0 0.0
2018-May-20 03:58N 53°07' E 008°43'0 0.0
2018-May-20 03:28N 53°07' E 008°43'0 0.0
2018-May-20 02:58N 53°07' E 008°43'0 0.0
2018-May-20 02:28N 53°07' E 008°43'0 0.0
2018-May-20 01:58N 53°07' E 008°43'0 0.0
2018-May-20 01:29N 53°07' E 008°43'0 0.0
2018-May-20 00:58N 53°07' E 008°43'0 0.0
2018-May-20 00:28N 53°07' E 008°43'0 0.0
2018-May-19 23:58N 53°07' E 008°43'0 0.0
2018-May-19 23:28N 53°07' E 008°43'0 0.0
2018-May-19 22:58N 53°07' E 008°43'0 0.0
2018-May-19 22:28N 53°07' E 008°43'0 0.0
2018-May-19 21:58N 53°07' E 008°43'0 0.0
2018-May-19 21:28N 53°07' E 008°43'0 0.0
2018-May-19 20:58N 53°07' E 008°43'0 0.0
2018-May-19 20:28N 53°07' E 008°43'0 0.0
2018-May-19 19:58N 53°07' E 008°43'0 0.0
2018-May-19 19:28N 53°07' E 008°43'0 0.0
2018-May-19 18:58N 53°07' E 008°43'0 0.0
2018-May-19 18:28N 53°07' E 008°43'0 0.0
2018-May-19 17:58N 53°07' E 008°43'0 0.0
2018-May-19 17:28N 53°07' E 008°43'0 0.0
2018-May-19 16:58N 53°07' E 008°43'0 0.0
2018-May-19 16:28N 53°07' E 008°43'0 0.0
2018-May-19 15:58N 53°07' E 008°43'0 0.0
2018-May-19 15:28N 53°07' E 008°43'0 0.0
2018-May-19 14:58N 53°07' E 008°43'0 0.0
2018-May-19 14:28N 53°07' E 008°43'0 0.0
2018-May-19 13:58N 53°07' E 008°43'0 0.0
2018-May-19 13:28N 53°07' E 008°43'0 0.0
2018-May-19 12:58N 53°07' E 008°43'0 0.0
2018-May-19 12:28N 53°07' E 008°43'0 0.0
2018-May-19 11:58N 53°07' E 008°43'0 0.0
2018-May-19 11:28N 53°07' E 008°43'0 0.0
2018-May-19 10:58N 53°07' E 008°43'0 0.0
2018-May-19 10:28N 53°07' E 008°43'0 0.0
2018-May-19 09:58N 53°07' E 008°43'0 0.0
2018-May-19 09:28N 53°07' E 008°43'0 0.0
2018-May-19 08:58N 53°07' E 008°43'0 0.0
2018-May-19 08:28N 53°07' E 008°43'0 0.0
2018-May-19 07:58N 53°07' E 008°43'0 0.0
2018-May-19 07:28N 53°07' E 008°43'0 0.0
2018-May-19 06:58N 53°07' E 008°43'0 0.0
2018-May-19 06:28N 53°07' E 008°43'0 0.0
2018-May-19 05:58N 53°07' E 008°43'0 0.0
2018-May-19 05:28N 53°07' E 008°43'0 0.0
2018-May-19 04:58N 53°07' E 008°43'0 0.0
2018-May-19 04:28N 53°07' E 008°43'0 0.0
2018-May-19 03:58N 53°07' E 008°43'0 0.0
2018-May-19 03:28N 53°07' E 008°43'0 0.0
2018-May-19 02:58N 53°07' E 008°43'0 0.0
2018-May-19 02:28N 53°07' E 008°43'0 0.0
2018-May-19 01:58N 53°07' E 008°43'0 0.0
2018-May-19 01:28N 53°07' E 008°43'0 0.0
2018-May-19 00:58N 53°07' E 008°43'0 0.0
2018-May-19 00:28N 53°07' E 008°43'0 0.0
2018-May-18 23:58N 53°07' E 008°43'0 0.0
2018-May-18 23:28N 53°07' E 008°43'0 0.0
2018-May-18 22:58N 53°07' E 008°43'0 0.0
2018-May-18 22:28N 53°07' E 008°43'0 0.0
2018-May-18 21:58N 53°07' E 008°43'0 0.0
2018-May-18 21:28N 53°07' E 008°43'0 0.0
2018-May-18 20:58N 53°07' E 008°43'0 0.0
2018-May-18 20:28N 53°07' E 008°43'0 0.0
2018-May-18 19:58N 53°07' E 008°43'0 0.0
2018-May-18 19:28N 53°07' E 008°43'0 0.0
2018-May-18 18:58N 53°07' E 008°43'0 0.0
2018-May-18 18:28N 53°07' E 008°43'0 0.0
2018-May-18 17:58N 53°07' E 008°43'0 0.0
2018-May-18 17:28N 53°07' E 008°43'0 0.0
2018-May-18 16:58N 53°07' E 008°43'0 0.0
2018-May-18 16:28N 53°07' E 008°43'0 0.0
2018-May-18 15:58N 53°07' E 008°43'0 0.0
2018-May-18 15:28N 53°07' E 008°43'0 0.0
2018-May-18 14:58N 53°07' E 008°43'0 0.0
2018-May-18 14:28N 53°07' E 008°43'0 0.0
2018-May-18 13:58N 53°07' E 008°43'0 0.0
2018-May-18 13:30N 53°07' E 008°43'0 0.0
2018-May-18 12:58N 53°07' E 008°43'0 0.0
2018-May-18 12:28N 53°07' E 008°43'0 0.7
2018-May-18 11:59N 53°07' E 008°43'0 0.0
2018-May-18 11:29N 53°07' E 008°43'0 0.0
2018-May-18 10:59N 53°07' E 008°43'0 0.0
2018-May-18 10:29N 53°07' E 008°43'0 0.0
2018-May-18 09:59N 53°07' E 008°43'0 0.0
2018-May-18 09:29N 53°07' E 008°43'0 0.0
2018-May-18 08:59N 53°07' E 008°43'0 0.0
2018-May-18 08:29N 53°07' E 008°43'0 0.0
2018-May-18 07:59N 53°07' E 008°43'0 0.0
2018-May-18 07:29N 53°07' E 008°43'0 0.0
2018-May-18 06:59N 53°07' E 008°43'0 0.0
2018-May-18 06:29N 53°07' E 008°43'0 0.0
2018-May-18 05:59N 53°07' E 008°43'0 0.0
2018-May-18 05:29N 53°07' E 008°43'0 0.0
2018-May-18 04:59N 53°07' E 008°43'0 0.0
2018-May-18 04:29N 53°07' E 008°43'0 0.0
2018-May-18 03:59N 53°07' E 008°43'0 0.0
2018-May-18 03:29N 53°07' E 008°43'0 0.0
2018-May-18 02:59N 53°07' E 008°43'0 0.0
2018-May-18 02:29N 53°07' E 008°43'0 0.0
2018-May-18 01:59N 53°07' E 008°43'0 0.0
2018-May-18 01:29N 53°07' E 008°43'0 0.0
2018-May-18 00:59N 53°07' E 008°43'0 0.0
2018-May-18 00:29N 53°07' E 008°43'0 0.0
2018-May-17 23:59N 53°07' E 008°43'0 0.0
2018-May-17 23:29N 53°07' E 008°43'0 0.0
2018-May-17 22:59N 53°07' E 008°43'0 0.0
2018-May-17 22:29N 53°07' E 008°43'0 0.0
2018-May-17 21:59N 53°07' E 008°43'0 0.0
2018-May-17 21:29N 53°07' E 008°43'0 0.0
2018-May-17 20:59N 53°07' E 008°43'0 0.0
2018-May-17 20:29N 53°07' E 008°43'0 0.0
2018-May-17 19:59N 53°07' E 008°43'0 0.0
2018-May-17 19:26N 53°07' E 008°43'0 0.0
2018-May-17 18:59N 53°07' E 008°43'0 0.0
2018-May-17 18:29N 53°07' E 008°43'0 0.0
2018-May-17 17:59N 53°07' E 008°43'  

Dump ship's entire track history